createdAt,value
2019-03-16T00:02:18.425Z,55.50
2019-03-16T00:04:49.970Z,55.50
2019-03-16T00:07:32.567Z,55.90
2019-03-16T00:09:53.956Z,56.40
2019-03-16T00:12:24.600Z,58.00
2019-03-16T00:14:55.133Z,59.10
2019-03-16T00:17:25.889Z,60.40
2019-03-16T00:19:57.708Z,62.10
2019-03-16T00:22:28.396Z,62.60
2019-03-16T00:24:58.945Z,63.50
2019-03-16T00:27:29.691Z,64.20
2019-03-16T00:30:01.466Z,65.00
2019-03-16T00:32:32.325Z,65.20
2019-03-16T00:35:03.979Z,65.50
2019-03-16T00:37:34.648Z,65.10
2019-03-16T00:40:08.633Z,65.90
2019-03-16T00:42:39.302Z,66.20
2019-03-16T00:45:11.459Z,66.60
2019-03-16T00:47:42.193Z,67.00
2019-03-16T00:50:14.699Z,67.80
2019-03-16T00:52:45.525Z,67.90
2019-03-16T00:55:16.159Z,68.80
2019-03-16T00:57:47.003Z,69.10
2019-03-16T01:00:18.052Z,69.90
2019-03-16T01:02:48.917Z,69.90
2019-03-16T01:05:20.366Z,69.90
2019-03-16T01:07:51.111Z,71.70
2019-03-16T01:10:21.773Z,72.30
2019-03-16T01:12:52.560Z,72.90
2019-03-16T01:15:23.091Z,72.70
2019-03-16T01:17:53.834Z,72.30
2019-03-16T01:20:23.931Z,71.90
2019-03-16T01:22:54.707Z,71.80
2019-03-16T01:25:25.344Z,71.90
2019-03-16T01:27:55.513Z,71.80
2019-03-16T01:30:26.144Z,71.60
2019-03-16T01:32:56.227Z,71.90
2019-03-16T01:35:26.768Z,72.40
2019-03-16T01:37:57.410Z,73.80
2019-03-16T01:40:27.949Z,74.00
2019-03-16T01:42:58.583Z,74.50
2019-03-16T01:45:29.247Z,75.10
2019-03-16T01:47:59.898Z,75.60
2019-03-16T01:50:29.949Z,75.50
2019-03-16T01:53:00.080Z,75.60
2019-03-16T01:55:30.063Z,75.80
2019-03-16T01:58:00.849Z,75.60
2019-03-16T02:00:31.492Z,75.30
2019-03-16T02:03:02.253Z,75.10
2019-03-16T02:05:33.855Z,75.30
2019-03-16T02:08:03.934Z,74.80
2019-03-16T02:10:34.499Z,74.20
2019-03-16T02:13:05.333Z,74.20
2019-03-16T02:15:35.882Z,74.40
2019-03-16T02:18:06.649Z,74.50
2019-03-16T02:20:37.309Z,74.80
2019-03-16T02:23:07.566Z,74.80
2019-03-16T02:25:38.300Z,75.20
2019-03-16T02:28:08.934Z,74.90
2019-03-16T02:30:38.912Z,75.10
2019-03-16T02:33:13.363Z,74.50
2019-03-16T02:35:41.836Z,74.50
2019-03-16T02:38:12.927Z,74.50
2019-03-16T02:40:43.562Z,74.60
2019-03-16T02:43:14.333Z,75.20
2019-03-16T02:45:45.079Z,74.60
2019-03-16T02:48:17.120Z,74.60
2019-03-16T02:50:47.176Z,75.00
2019-03-16T02:53:17.892Z,74.60
2019-03-16T02:55:48.643Z,74.90
2019-03-16T02:58:20.395Z,75.30
2019-03-16T03:00:51.045Z,75.80
2019-03-16T03:03:29.114Z,75.90
2019-03-16T03:05:53.754Z,76.30
2019-03-16T03:08:25.448Z,76.70
2019-03-16T03:10:56.106Z,77.00
2019-03-16T03:13:26.885Z,77.10
2019-03-16T03:15:57.547Z,77.30
2019-03-16T03:18:29.315Z,76.90
2019-03-16T03:20:59.961Z,76.70
2019-03-16T03:23:30.757Z,76.50
2019-03-16T03:26:01.314Z,76.30
2019-03-16T03:28:35.249Z,76.20
2019-03-16T03:31:05.425Z,75.70
2019-03-16T03:33:57.246Z,75.50
2019-03-16T03:36:08.368Z,75.40
2019-03-16T03:38:40.182Z,75.00
2019-03-16T03:41:10.844Z,75.10
2019-03-16T03:43:41.613Z,75.30
2019-03-16T03:46:12.401Z,75.20
2019-03-16T03:48:44.163Z,75.90
2019-03-16T03:51:14.365Z,76.00
2019-03-16T03:53:45.186Z,76.10
2019-03-16T03:56:15.732Z,75.90
2019-03-16T03:58:47.378Z,75.70
2019-03-16T04:01:17.462Z,75.80
2019-03-16T04:03:47.753Z,75.90
2019-03-16T04:06:18.516Z,75.30
2019-03-16T04:08:49.701Z,75.90
2019-03-16T04:11:19.765Z,75.70
2019-03-16T04:13:50.492Z,75.20
2019-03-16T04:16:22.145Z,75.50
2019-03-16T04:18:54.375Z,75.30
2019-03-16T04:21:25.033Z,74.90
2019-03-16T04:23:55.745Z,74.80
2019-03-16T04:26:25.725Z,74.40
2019-03-16T04:28:56.893Z,74.50
2019-03-16T04:31:26.868Z,74.40
2019-03-16T04:33:57.618Z,74.10
2019-03-16T04:36:32.664Z,74.20
2019-03-16T04:39:07.400Z,74.20
2019-03-16T04:41:38.072Z,73.60
2019-03-16T04:44:08.742Z,73.90
2019-03-16T04:46:40.467Z,74.20
2019-03-16T04:49:10.780Z,74.40
2019-03-16T04:51:41.338Z,74.60
2019-03-16T04:54:12.155Z,74.70
2019-03-16T04:56:42.795Z,74.80
2019-03-16T04:59:13.519Z,74.50
2019-03-16T05:01:44.177Z,74.50
2019-03-16T05:04:14.342Z,74.70
2019-03-16T05:06:45.219Z,74.90
2019-03-16T05:09:16.003Z,74.80
2019-03-16T05:11:46.544Z,74.90
2019-03-16T05:14:16.611Z,75.00
2019-03-16T05:16:47.250Z,75.20
2019-03-16T05:19:18.390Z,75.10
2019-03-16T05:21:49.008Z,75.40
2019-03-16T05:24:19.730Z,75.80
2019-03-16T05:26:50.357Z,75.80
2019-03-16T05:29:20.516Z,75.90
2019-03-16T05:31:51.675Z,75.90
2019-03-16T05:34:22.376Z,75.90
2019-03-16T05:36:55.917Z,75.80
2019-03-16T05:39:26.728Z,75.50
2019-03-16T05:41:56.800Z,75.10
2019-03-16T05:44:27.575Z,74.20
2019-03-16T05:46:58.408Z,73.80
2019-03-16T05:49:30.173Z,73.50
2019-03-16T05:52:00.822Z,72.80
2019-03-16T05:54:31.651Z,72.30
2019-03-16T05:57:01.688Z,71.90
2019-03-16T05:59:33.434Z,70.50
2019-03-16T06:02:03.972Z,69.80
2019-03-16T06:04:34.629Z,69.40
2019-03-16T06:07:05.611Z,69.00
2019-03-16T06:09:37.825Z,68.30
2019-03-16T06:12:07.904Z,67.90
2019-03-16T06:14:38.638Z,67.30
2019-03-16T06:17:09.175Z,67.30
2019-03-16T06:19:40.873Z,66.40
2019-03-16T06:22:10.834Z,65.40
2019-03-16T06:24:41.539Z,64.60
2019-03-16T06:27:12.214Z,63.40
2019-03-16T06:29:43.990Z,62.70
2019-03-16T06:32:14.541Z,60.90
2019-03-16T06:34:45.290Z,58.70
2019-03-16T06:37:15.930Z,57.00
2019-03-16T06:39:47.646Z,56.30
2019-03-16T06:42:18.189Z,54.00
2019-03-16T06:44:48.840Z,53.90
2019-03-16T06:47:19.385Z,53.20
2019-03-16T06:49:51.083Z,52.70
2019-03-16T06:52:21.782Z,51.60
2019-03-16T06:54:52.738Z,50.60
2019-03-16T06:57:23.359Z,49.90
2019-03-16T06:59:55.168Z,49.20
2019-03-16T07:02:25.724Z,46.60
2019-03-16T07:04:56.486Z,43.60
2019-03-16T07:07:28.072Z,42.40
2019-03-16T07:10:00.863Z,41.10
2019-03-16T07:12:34.537Z,40.80
2019-03-16T07:15:04.114Z,40.30
2019-03-16T07:17:34.737Z,38.90
2019-03-16T07:20:08.651Z,36.40
2019-03-16T07:22:39.331Z,34.20
2019-03-16T07:25:10.355Z,32.70
2019-03-16T07:27:41.101Z,31.80
2019-03-16T07:30:15.068Z,30.70
2019-03-16T07:32:45.686Z,29.90
2019-03-16T07:35:16.418Z,29.30
2019-03-16T07:37:47.078Z,28.70
2019-03-16T07:40:17.837Z,27.30
2019-03-16T07:42:48.414Z,27.40
2019-03-16T07:45:19.218Z,27.20
2019-03-16T07:47:49.764Z,26.70
2019-03-16T07:50:20.436Z,26.60
2019-03-16T07:52:50.675Z,26.20
2019-03-16T07:55:21.113Z,26.00
2019-03-16T07:57:51.789Z,25.80
2019-03-16T08:00:22.222Z,25.50
2019-03-16T08:02:52.582Z,25.20
2019-03-16T08:05:23.042Z,24.90
2019-03-16T08:07:54.245Z,24.90
2019-03-16T08:10:25.002Z,24.90
2019-03-16T08:12:55.330Z,24.40
2019-03-16T08:15:28.082Z,24.80
2019-03-16T08:17:57.764Z,24.40
2019-03-16T08:20:31.272Z,24.50
2019-03-16T08:23:00.068Z,24.70
2019-03-16T08:25:30.565Z,24.30
2019-03-16T08:28:00.915Z,24.60
2019-03-16T08:30:31.265Z,25.20
2019-03-16T08:33:01.624Z,25.40
2019-03-16T08:35:32.144Z,25.70
2019-03-16T08:38:02.421Z,26.10
2019-03-16T08:40:32.858Z,26.70
2019-03-16T08:43:03.401Z,28.30
2019-03-16T08:45:33.960Z,28.20
2019-03-16T08:48:04.703Z,27.80
2019-03-16T08:50:35.158Z,28.10
2019-03-16T08:53:05.495Z,28.40
2019-03-16T08:55:36.206Z,29.10
2019-03-16T08:58:06.843Z,29.20
2019-03-16T09:00:37.535Z,28.20
2019-03-16T09:03:07.863Z,28.30
2019-03-16T09:05:38.623Z,28.50
2019-03-16T09:08:11.239Z,28.00
2019-03-16T09:10:41.977Z,27.70
2019-03-16T09:13:13.302Z,27.30
2019-03-16T09:15:43.643Z,26.80
2019-03-16T09:18:14.997Z,26.40
2019-03-16T09:20:45.744Z,27.20
2019-03-16T09:23:15.986Z,27.10
2019-03-16T09:25:46.805Z,26.80
2019-03-16T09:28:18.887Z,26.80
2019-03-16T09:30:49.256Z,25.70
2019-03-16T09:33:19.700Z,25.40
2019-03-16T09:35:50.159Z,26.20
2019-03-16T09:38:20.895Z,26.10
2019-03-16T09:40:51.683Z,25.90
2019-03-16T09:43:22.253Z,26.30
2019-03-16T09:45:52.937Z,27.20
2019-03-16T09:48:24.755Z,27.40
2019-03-16T09:50:55.134Z,27.00
2019-03-16T09:53:25.409Z,27.10
2019-03-16T09:55:55.969Z,26.70
2019-03-16T09:58:31.523Z,26.20
2019-03-16T10:00:59.941Z,26.90
2019-03-16T10:03:30.505Z,26.80
2019-03-16T10:06:01.277Z,27.50
2019-03-16T10:08:33.991Z,28.90
2019-03-16T10:11:04.721Z,30.10
2019-03-16T10:13:35.348Z,32.30
2019-03-16T10:16:06.014Z,33.20
2019-03-16T10:18:37.680Z,34.50
2019-03-16T10:21:08.421Z,35.40
2019-03-16T10:23:39.374Z,37.00
2019-03-16T10:26:10.116Z,38.00
2019-03-16T10:28:43.895Z,38.80
2019-03-16T10:31:14.117Z,39.70
2019-03-16T10:33:45.760Z,39.80
2019-03-16T10:36:16.501Z,39.80
2019-03-16T10:38:49.208Z,39.70
2019-03-16T10:41:19.958Z,39.70
2019-03-16T10:43:50.509Z,41.00
2019-03-16T10:46:21.276Z,40.50
2019-03-16T10:48:53.039Z,40.50
2019-03-16T10:51:23.938Z,41.30
2019-03-16T10:53:57.587Z,40.80
2019-03-16T10:56:28.502Z,40.70
2019-03-16T10:59:00.107Z,40.90
2019-03-16T11:01:30.981Z,41.70
2019-03-16T11:04:01.612Z,41.50
2019-03-16T11:06:32.293Z,41.50
2019-03-16T11:09:06.981Z,42.20
2019-03-16T11:11:37.716Z,42.10
2019-03-16T11:14:08.480Z,42.00
2019-03-16T11:16:39.140Z,42.30
2019-03-16T11:19:10.885Z,42.80
2019-03-16T11:21:41.627Z,42.90
2019-03-16T11:24:12.292Z,43.40
2019-03-16T11:26:43.115Z,44.00
2019-03-16T11:29:14.935Z,44.20
2019-03-16T11:31:45.584Z,44.80
2019-03-16T11:34:16.239Z,44.80
2019-03-16T11:36:46.990Z,45.20
2019-03-16T11:39:18.831Z,45.90
2019-03-16T11:41:49.600Z,46.40
2019-03-16T11:44:20.323Z,46.80
2019-03-16T11:46:50.981Z,46.40
2019-03-16T11:49:22.690Z,47.90
2019-03-16T11:51:53.551Z,47.00
2019-03-16T11:54:24.211Z,47.30
2019-03-16T11:56:54.903Z,47.80
2019-03-16T11:59:25.649Z,47.10
2019-03-16T12:02:04.912Z,48.10
2019-03-16T12:04:28.496Z,47.50
2019-03-16T12:06:59.237Z,47.90
2019-03-16T12:09:30.759Z,47.30
2019-03-16T12:12:01.498Z,47.40
2019-03-16T12:14:32.141Z,47.10
2019-03-16T12:17:02.890Z,46.30
2019-03-16T12:19:33.462Z,46.80
2019-03-16T12:22:04.220Z,46.80
2019-03-16T12:24:34.860Z,46.60
2019-03-16T12:27:05.676Z,46.20
2019-03-16T12:29:36.344Z,46.40
2019-03-16T12:32:07.090Z,46.30
2019-03-16T12:34:37.881Z,44.60
2019-03-16T12:37:08.571Z,44.10
2019-03-16T12:39:39.314Z,43.70
2019-03-16T12:42:09.962Z,43.00
2019-03-16T12:44:40.604Z,41.00
2019-03-16T12:47:11.257Z,39.90
2019-03-16T12:49:41.878Z,41.50
2019-03-16T12:52:12.519Z,41.40
2019-03-16T12:54:43.076Z,41.60
2019-03-16T12:57:13.882Z,39.60
2019-03-16T12:59:47.066Z,39.60
2019-03-16T13:02:16.814Z,39.50
2019-03-16T13:04:47.459Z,39.10
2019-03-16T13:07:18.208Z,39.20
2019-03-16T13:09:49.858Z,38.50
2019-03-16T13:12:20.561Z,38.40
2019-03-16T13:14:51.087Z,38.70
2019-03-16T13:17:21.756Z,39.60
2019-03-16T13:19:52.601Z,39.50
